createdAt,value
2018-04-10T00:00:05.234Z,77.53
2018-04-10T00:01:05.177Z,77.63
2018-04-10T00:02:05.167Z,77.15
2018-04-10T00:03:05.150Z,77.63
2018-04-10T00:04:05.111Z,77.34
2018-04-10T00:05:05.081Z,76.39
2018-04-10T00:06:05.057Z,76.10
2018-04-10T00:07:05.060Z,76.39
2018-04-10T00:08:05.019Z,76.19
2018-04-10T00:09:05.008Z,75.90
2018-04-10T00:10:05.027Z,75.14
2018-04-10T00:11:04.947Z,76.00
2018-04-10T00:12:04.890Z,75.62
2018-04-10T00:13:04.875Z,75.81
2018-04-10T00:14:04.859Z,75.33
2018-04-10T00:15:04.856Z,75.33
2018-04-10T00:16:04.809Z,74.47
2018-04-10T00:17:04.771Z,74.82
2018-04-10T00:18:04.748Z,74.82
2018-04-10T00:19:04.741Z,74.24
2018-04-10T00:20:04.722Z,73.95
2018-04-10T00:21:05.131Z,74.05
2018-04-10T00:22:04.645Z,74.43
2018-04-10T00:23:04.623Z,73.57
2018-04-10T00:24:04.602Z,73.38
2018-04-10T00:25:04.571Z,73.95
2018-04-10T00:26:04.547Z,73.95
2018-04-10T00:27:04.542Z,74.05
2018-04-10T00:28:04.490Z,73.86
2018-04-10T00:29:04.469Z,73.86
2018-04-10T00:30:04.474Z,72.90
2018-04-10T00:31:04.413Z,73.86
2018-04-10T00:32:04.388Z,73.47
2018-04-10T00:33:04.376Z,73.76
2018-04-10T00:34:04.391Z,73.38
2018-04-10T00:35:04.374Z,72.71
2018-04-10T00:36:04.366Z,73.19
2018-04-10T00:37:04.266Z,73.09
2018-04-10T00:38:04.245Z,72.61
2018-04-10T00:39:04.183Z,72.71
2018-04-10T00:40:04.182Z,73.19
2018-04-10T00:41:04.165Z,72.71
2018-04-10T00:42:04.127Z,72.13
2018-04-10T00:43:04.098Z,72.80
2018-04-10T00:44:04.069Z,72.32
2018-04-10T00:45:04.057Z,71.84
2018-04-10T00:46:04.117Z,71.75
2018-04-10T00:47:04.005Z,71.91
2018-04-10T00:48:03.985Z,71.37
2018-04-10T00:49:03.952Z,71.27
2018-04-10T00:50:03.951Z,71.42
2018-04-10T00:51:03.896Z,71.04
2018-04-10T00:52:03.865Z,71.42
2018-04-10T00:53:03.857Z,71.08
2018-04-10T00:54:03.824Z,70.98
2018-04-10T00:55:03.782Z,71.14
2018-04-10T00:56:03.757Z,70.66
2018-04-10T00:57:03.739Z,70.76
2018-04-10T00:58:03.733Z,70.37
2018-04-10T00:59:03.701Z,71.04
2018-04-10T01:00:03.666Z,70.66
2018-04-10T01:01:03.642Z,70.37
2018-04-10T01:02:03.616Z,70.56
2018-04-10T01:03:04.020Z,70.37
2018-04-10T01:04:03.549Z,70.76
2018-04-10T01:05:03.527Z,70.76
2018-04-10T01:06:03.545Z,70.37
2018-04-10T01:07:03.955Z,70.76
2018-04-10T01:08:03.478Z,69.99
2018-04-10T01:09:03.432Z,69.99
2018-04-10T01:10:03.417Z,70.47
2018-04-10T01:11:03.624Z,70.09
2018-04-10T01:12:03.349Z,70.56
2018-04-10T01:13:03.323Z,69.99
2018-04-10T01:14:03.312Z,70.28
2018-04-10T01:15:03.291Z,69.99
2018-04-10T01:16:03.242Z,69.89
2018-04-10T01:17:03.262Z,69.99
2018-04-10T01:18:03.226Z,69.70
2018-04-10T01:19:03.174Z,70.09
2018-04-10T01:20:03.147Z,69.23
2018-04-10T01:21:03.128Z,68.94
2018-04-10T01:22:03.110Z,69.13
2018-04-10T01:23:03.054Z,69.42
2018-04-10T01:24:03.043Z,69.32
2018-04-10T01:25:03.035Z,68.94
2018-04-10T01:26:03.000Z,69.13
2018-04-10T01:27:02.963Z,69.13
2018-04-10T01:28:02.931Z,68.94
2018-04-10T01:29:02.933Z,69.13
2018-04-10T01:30:02.865Z,69.03
2018-04-10T01:31:02.962Z,68.90
2018-04-10T01:32:02.853Z,68.52
2018-04-10T01:33:02.839Z,68.65
2018-04-10T01:34:02.765Z,69.23
2018-04-10T01:35:02.744Z,68.42
2018-04-10T01:36:02.817Z,69.29
2018-04-10T01:37:02.694Z,68.65
2018-04-10T01:38:02.701Z,69.00
2018-04-10T01:39:02.644Z,69.09
2018-04-10T01:40:02.612Z,68.42
2018-04-10T01:41:02.610Z,68.80
2018-04-10T01:42:02.652Z,68.52
2018-04-10T01:43:02.536Z,68.46
2018-04-10T01:44:02.517Z,68.74
2018-04-10T01:45:02.477Z,68.71
2018-04-10T01:46:02.454Z,68.71
2018-04-10T01:47:02.422Z,68.23
2018-04-10T01:48:02.405Z,68.33
2018-04-10T01:49:02.657Z,68.23
2018-04-10T01:50:02.303Z,68.04
2018-04-10T01:51:02.316Z,68.42
2018-04-10T01:52:02.335Z,67.18
2018-04-10T01:53:02.274Z,67.76
2018-04-10T01:54:02.260Z,66.99
2018-04-10T01:55:02.223Z,67.18
2018-04-10T01:56:02.195Z,66.70
2018-04-10T01:57:02.155Z,67.37
2018-04-10T01:58:02.136Z,66.89
2018-04-10T01:59:02.064Z,66.99
2018-04-10T02:00:02.038Z,67.47
2018-04-10T02:01:02.007Z,66.61
2018-04-10T02:02:01.991Z,67.27
2018-04-10T02:03:01.957Z,66.70
2018-04-10T02:04:01.929Z,66.80
2018-04-10T02:05:01.907Z,66.99
2018-04-10T02:06:01.893Z,66.80
2018-04-10T02:07:01.854Z,65.94
2018-04-10T02:08:01.829Z,66.22
2018-04-10T02:09:01.817Z,66.80
2018-04-10T02:10:01.775Z,66.13
2018-04-10T02:16:49.647Z,66.22
2018-04-10T02:17:49.465Z,66.22
2018-04-10T02:19:52.368Z,66.32
2018-04-10T02:20:52.032Z,66.32
2018-04-10T02:23:07.394Z,65.45
2018-04-10T02:24:07.596Z,65.74
2018-04-10T02:25:06.921Z,65.74
2018-04-10T02:26:06.364Z,65.55
2018-04-10T02:27:07.279Z,65.26
2018-04-10T02:28:06.810Z,65.52
2018-04-10T02:29:08.218Z,64.79
2018-04-10T02:30:06.908Z,65.55
2018-04-10T02:31:08.070Z,65.36
2018-04-10T02:32:06.084Z,64.98
2018-04-10T02:33:05.927Z,64.28
2018-04-10T02:34:05.969Z,64.56
2018-04-10T02:35:07.651Z,63.60
2018-04-10T02:36:07.083Z,64.28
2018-04-10T02:37:05.176Z,63.70
2018-04-10T02:38:05.012Z,63.80
2018-04-10T02:39:04.953Z,63.99
2018-04-10T02:40:04.923Z,63.03
2018-04-10T02:41:04.902Z,63.03
2018-04-10T02:42:04.907Z,63.03
2018-04-10T02:43:04.842Z,62.37
2018-04-10T02:44:04.878Z,62.84
2018-04-10T02:45:04.824Z,62.65
2018-04-10T02:46:04.775Z,62.65
2018-04-10T02:47:04.736Z,63.03
2018-04-10T02:48:04.712Z,62.84
2018-04-10T02:49:04.685Z,61.79
2018-04-10T02:50:04.684Z,62.55
2018-04-10T02:51:04.636Z,62.65
2018-04-10T02:52:04.753Z,62.46
2018-04-10T02:53:04.578Z,62.08
2018-04-10T02:54:04.554Z,62.37
2018-04-10T02:55:04.522Z,62.27
2018-04-10T02:56:04.514Z,62.17
2018-04-10T02:57:04.479Z,61.41
2018-04-10T02:58:04.445Z,62.08
2018-04-10T02:59:04.424Z,61.79
2018-04-10T03:00:04.397Z,61.98
2018-04-10T03:01:06.215Z,62.37
2018-04-10T03:02:04.337Z,61.31
2018-04-10T03:03:04.317Z,61.98
2018-04-10T03:04:04.285Z,61.98
2018-04-10T03:05:04.266Z,61.79
2018-04-10T03:06:04.230Z,61.22
2018-04-10T03:07:04.227Z,61.88
2018-04-10T03:08:04.179Z,61.31
2018-04-10T03:09:04.249Z,61.02
2018-04-10T03:10:04.142Z,60.93
2018-04-10T03:11:04.096Z,61.12
2018-04-10T03:12:04.104Z,60.23
2018-04-10T03:13:04.051Z,60.42
2018-04-10T03:14:04.032Z,60.42
2018-04-10T03:15:04.016Z,60.71
2018-04-10T03:16:04.080Z,60.13
2018-04-10T03:17:03.970Z,59.75
2018-04-10T03:18:03.925Z,60.13
2018-04-10T03:19:03.897Z,59.66
2018-04-10T03:20:03.859Z,59.66
2018-04-10T03:21:03.869Z,59.94
2018-04-10T03:22:03.806Z,59.88
2018-04-10T03:23:03.779Z,59.84
2018-04-10T03:24:03.757Z,60.93
2018-04-10T03:25:03.726Z,60.13
2018-04-10T03:26:03.695Z,60.42
2018-04-10T03:27:03.691Z,60.04
2018-04-10T03:28:03.649Z,59.66
2018-04-10T03:29:03.623Z,59.94
2018-04-10T03:30:03.601Z,59.27
2018-04-10T03:31:03.573Z,59.84
2018-04-10T03:32:03.554Z,59.75
2018-04-10T03:33:03.653Z,59.94
2018-04-10T03:34:03.637Z,59.94
2018-04-10T03:35:03.512Z,59.37
2018-04-10T03:36:03.555Z,59.37
2018-04-10T03:37:03.487Z,59.47
2018-04-10T03:38:03.389Z,59.08
2018-04-10T03:39:03.435Z,59.27
2018-04-10T03:40:03.343Z,58.89
2018-04-10T03:41:03.348Z,59.37
2018-04-10T03:42:03.331Z,58.89
2018-04-10T03:43:03.253Z,58.70
2018-04-10T03:44:03.264Z,58.89
2018-04-10T03:45:03.253Z,58.70
2018-04-10T03:46:03.276Z,58.61
2018-04-10T03:47:03.172Z,58.51
2018-04-10T03:48:03.116Z,57.65
2018-04-10T03:49:03.094Z,57.17
2018-04-10T03:50:03.069Z,57.07
2018-04-10T03:51:03.036Z,57.26
2018-04-10T03:52:03.010Z,57.26
2018-04-10T03:53:02.975Z,57.07
2018-04-10T03:54:02.951Z,57.07
2018-04-10T03:55:02.924Z,56.38
2018-04-10T03:56:03.004Z,55.83
2018-04-10T03:57:02.869Z,56.02
2018-04-10T03:58:02.847Z,55.83
2018-04-10T03:59:02.889Z,56.02
2018-04-10T04:00:02.855Z,55.35
2018-04-10T04:01:02.775Z,56.02
2018-04-10T04:02:02.755Z,55.74
2018-04-10T04:03:02.710Z,55.32
2018-04-10T04:04:02.685Z,55.83
2018-04-10T04:05:02.655Z,56.02
2018-04-10T04:06:02.626Z,55.16
2018-04-10T04:07:02.610Z,55.93
2018-04-10T04:08:02.578Z,55.54
2018-04-10T04:09:02.549Z,55.52
2018-04-10T04:10:02.527Z,54.85
2018-04-10T04:11:02.519Z,54.66
2018-04-10T04:12:02.469Z,54.85
2018-04-10T04:13:02.446Z,54.94
2018-04-10T04:14:02.409Z,54.37
2018-04-10T04:15:02.396Z,54.37
2018-04-10T04:16:02.400Z,53.80
2018-04-10T04:17:02.342Z,53.99
2018-04-10T04:18:02.304Z,54.08
2018-04-10T04:19:02.288Z,54.37
2018-04-10T04:20:02.252Z,53.89
2018-04-10T04:21:02.227Z,53.99
2018-04-10T04:22:02.197Z,54.27
2018-04-10T04:23:02.177Z,53.51
2018-04-10T04:24:02.199Z,53.41
2018-04-10T04:25:02.128Z,53.89
2018-04-10T04:26:03.763Z,53.13
2018-04-10T04:27:02.083Z,53.89
2018-04-10T04:28:02.039Z,53.41
2018-04-10T04:29:02.009Z,53.70
2018-04-10T04:30:01.979Z,53.22
2018-04-10T04:31:01.957Z,53.22
2018-04-10T04:32:01.970Z,52.94
2018-04-10T04:33:01.976Z,53.32
2018-04-10T04:34:01.939Z,53.89
2018-04-10T04:35:01.899Z,54.37
2018-04-10T04:36:01.871Z,53.89
2018-04-10T04:37:01.821Z,54.27
2018-04-10T04:38:01.819Z,53.89
2018-04-10T04:39:01.799Z,54.18
2018-04-10T04:40:01.718Z,53.61
2018-04-10T04:41:01.685Z,54.18
2018-04-10T04:42:01.656Z,53.99
2018-04-10T04:43:01.625Z,53.03
2018-04-10T04:44:01.633Z,53.32
2018-04-10T04:45:01.582Z,53.41
2018-04-10T04:46:01.558Z,53.41
2018-04-10T04:47:01.528Z,53.41
2018-04-10T04:48:01.569Z,53.03
2018-04-10T04:49:01.466Z,53.32
2018-04-10T04:50:01.436Z,53.41
2018-04-10T04:51:01.466Z,53.03
2018-04-10T04:52:01.560Z,53.03
2018-04-10T04:53:01.379Z,52.94
2018-04-10T04:54:01.347Z,52.84
2018-04-10T04:55:01.308Z,52.17
2018-04-10T04:56:01.281Z,52.26
2018-04-10T04:57:01.265Z,51.60
2018-04-10T04:58:01.220Z,51.89
2018-04-10T04:59:01.202Z,52.55
2018-04-10T05:00:01.169Z,52.08
2018-04-10T05:01:01.214Z,51.98
2018-04-10T05:02:01.133Z,51.89
2018-04-10T05:03:01.124Z,51.60
2018-04-10T05:04:01.098Z,51.98
2018-04-10T05:05:01.044Z,51.98
2018-04-10T05:06:01.006Z,51.70
2018-04-10T05:07:00.981Z,51.79
2018-04-10T05:08:00.952Z,51.89
2018-04-10T05:09:00.931Z,52.08
2018-04-10T05:10:00.905Z,52.36
2018-04-10T05:11:00.869Z,51.98
2018-04-10T05:12:00.899Z,52.08
2018-04-10T05:13:00.817Z,51.41
2018-04-10T05:14:00.789Z,52.26
2018-04-10T05:15:00.765Z,51.98
2018-04-10T05:16:00.739Z,51.98
2018-04-10T05:17:00.715Z,51.70
2018-04-10T05:18:00.727Z,52.08
2018-04-10T05:19:00.655Z,51.98
2018-04-10T05:20:00.623Z,51.60
2018-04-10T05:21:00.596Z,51.70
2018-04-10T05:22:00.570Z,52.26
2018-04-10T05:23:00.674Z,52.65
2018-04-10T05:24:00.519Z,51.60
2018-04-10T05:25:00.484Z,51.60
2018-04-10T05:26:00.468Z,51.60
2018-04-10T05:27:00.481Z,52.36
2018-04-10T05:28:00.503Z,52.36
2018-04-10T05:29:00.424Z,52.36
2018-04-10T05:30:00.366Z,51.70
2018-04-10T05:31:00.325Z,52.36
2018-04-10T05:32:00.673Z,52.55
2018-04-10T05:33:02.339Z,52.36
2018-04-10T05:34:00.240Z,51.89
2018-04-10T05:35:00.228Z,51.89
2018-04-10T05:36:00.276Z,52.65
2018-04-10T05:37:00.199Z,53.03
2018-04-10T05:38:00.134Z,52.58
2018-04-10T05:39:00.197Z,53.06
2018-04-10T05:40:00.165Z,53.03
2018-04-10T05:41:00.134Z,53.73
2018-04-10T05:42:00.075Z,54.59
2018-04-10T05:43:00.000Z,54.59
2018-04-10T05:43:59.973Z,54.39
2018-04-10T05:44:59.943Z,55.07
2018-04-10T05:45:59.919Z,54.97
2018-04-10T05:46:59.886Z,55.16
2018-04-10T05:47:59.863Z,54.78
2018-04-10T05:48:59.968Z,54.39
2018-04-10T05:49:59.823Z,54.39
2018-04-10T05:50:59.789Z,54.97
2018-04-10T05:51:59.849Z,55.45
2018-04-10T05:52:59.737Z,56.12
2018-04-10T05:53:59.707Z,56.12
2018-04-10T05:54:59.695Z,55.83
2018-04-10T05:55:59.738Z,55.64
2018-04-10T05:56:59.629Z,56.72
2018-04-10T05:57:59.597Z,56.91
2018-04-10T05:58:59.568Z,57.01
2018-04-10T05:59:59.548Z,57.10
2018-04-10T06:00:59.529Z,57.10
2018-04-10T06:01:59.483Z,56.82
2018-04-10T06:02:59.507Z,57.58
2018-04-10T06:03:59.470Z,57.58
2018-04-10T06:04:59.452Z,58.06
2018-04-10T06:05:59.393Z,58.15
2018-04-10T06:06:59.428Z,58.25
2018-04-10T06:07:59.336Z,59.11
2018-04-10T06:08:59.307Z,58.83
2018-04-10T06:09:59.268Z,59.01
2018-04-10T06:10:59.364Z,59.01
2018-04-10T06:11:59.296Z,59.49
2018-04-10T06:12:59.288Z,59.62
2018-04-10T06:13:59.165Z,59.05
2018-04-10T06:14:59.145Z,59.43
2018-04-10T06:15:59.208Z,60.29
2018-04-10T06:16:59.092Z,60.19
2018-04-10T06:17:59.078Z,60.67
2018-04-10T06:18:59.040Z,60.67
2018-04-10T06:19:59.197Z,60.77
2018-04-10T06:20:58.984Z,60.19
2018-04-10T06:21:58.962Z,60.86
2018-04-10T06:22:59.044Z,60.77
2018-04-10T06:23:58.908Z,60.77
2018-04-10T06:24:58.905Z,60.86
2018-04-10T06:25:58.856Z,61.15
2018-04-10T06:26:58.909Z,61.54
2018-04-10T06:27:58.806Z,61.34
2018-04-10T06:29:00.744Z,61.44
2018-04-10T06:29:58.755Z,61.54
2018-04-10T06:30:58.805Z,62.23
2018-04-10T06:31:58.699Z,62.20
2018-04-10T06:32:58.678Z,63.19
2018-04-10T06:33:58.645Z,63.19
2018-04-10T06:34:58.638Z,62.71
2018-04-10T06:36:00.325Z,62.90
2018-04-10T06:36:58.568Z,63.76
2018-04-10T06:37:58.550Z,64.05
2018-04-10T06:38:58.513Z,63.76
2018-04-10T06:39:58.495Z,64.25
2018-04-10T06:40:58.474Z,64.05
2018-04-10T06:41:58.433Z,64.43
2018-04-10T06:42:58.406Z,64.92
2018-04-10T06:43:58.395Z,64.92
2018-04-10T06:44:58.382Z,65.42
2018-04-10T06:46:01.238Z,65.14
2018-04-10T06:46:58.313Z,65.05
2018-04-10T06:47:58.280Z,66.19
2018-04-10T06:48:58.359Z,65.91
2018-04-10T06:49:58.249Z,66.00
2018-04-10T06:50:58.210Z,66.48
2018-04-10T06:51:58.172Z,66.77
2018-04-10T06:52:58.189Z,67.15
2018-04-10T06:53:58.124Z,67.15
2018-04-10T06:54:58.108Z,67.15
2018-04-10T06:55:58.077Z,66.96
2018-04-10T06:56:58.041Z,67.44
2018-04-10T06:57:58.014Z,68.05
2018-04-10T06:58:57.991Z,69.68
2018-04-10T06:59:57.962Z,68.72
2018-04-10T07:00:57.935Z,69.20
2018-04-10T07:01:57.917Z,69.48
2018-04-10T07:02:57.895Z,70.44
2018-04-10T07:03:57.869Z,71.02
2018-04-10T07:04:57.847Z,71.98
2018-04-10T07:05:59.755Z,71.02
2018-04-10T07:06:57.800Z,71.50
2018-04-10T07:07:57.794Z,71.69
2018-04-10T07:08:57.751Z,72.49
2018-04-10T07:10:00.266Z,72.88
2018-04-10T07:10:57.697Z,72.78
2018-04-10T07:11:57.661Z,74.51
2018-04-10T07:12:57.637Z,74.41
2018-04-10T07:13:57.611Z,74.69
2018-04-10T07:14:57.589Z,74.22
2018-04-10T07:15:57.573Z,74.02
2018-04-10T07:16:57.563Z,75.65
2018-04-10T07:17:57.517Z,77.29
2018-04-10T07:18:57.551Z,77.23
2018-04-10T07:19:57.459Z,76.62
2018-04-10T07:20:57.496Z,77.04
2018-04-10T07:21:57.413Z,76.65
2018-04-10T07:22:57.472Z,75.98
2018-04-10T07:23:57.378Z,78.19
2018-04-10T07:24:57.345Z,78.09
2018-04-10T07:25:57.315Z,78.28
2018-04-10T07:26:57.295Z,77.90
2018-04-10T07:27:57.259Z,78.67
2018-04-10T07:28:57.247Z,78.86
2018-04-10T07:29:57.215Z,79.63
2018-04-10T07:30:57.184Z,79.44
2018-04-10T07:31:57.162Z,79.05
2018-04-10T07:32:57.139Z,79.63
2018-04-10T07:33:57.108Z,79.63
2018-04-10T07:34:57.089Z,80.11
2018-04-10T07:35:57.083Z,80.40
2018-04-10T07:36:57.118Z,80.97
2018-04-10T07:37:57.022Z,80.73
2018-04-10T07:38:56.999Z,80.40
2018-04-10T07:39:56.986Z,80.30
2018-04-10T07:40:56.941Z,80.01
2018-04-10T07:41:56.917Z,81.35
2018-04-10T07:42:56.895Z,81.45
2018-04-10T07:43:56.868Z,81.64
2018-04-10T07:44:56.849Z,82.21
2018-04-10T07:45:56.842Z,82.03
2018-04-10T07:46:56.787Z,81.45
2018-04-10T07:47:56.776Z,81.84
2018-04-10T07:48:56.779Z,81.45
2018-04-10T07:49:56.720Z,81.26
2018-04-10T07:50:56.694Z,81.64
2018-04-10T07:51:56.678Z,80.68
2018-04-10T07:52:56.656Z,80.78
2018-04-10T07:53:56.620Z,81.35
2018-04-10T07:54:56.607Z,81.54
2018-04-10T07:55:56.583Z,82.26
2018-04-10T07:56:56.549Z,82.26
2018-04-10T07:57:56.546Z,82.74
2018-04-10T07:58:56.509Z,82.74
2018-04-10T07:59:56.464Z,82.74
2018-04-10T08:00:56.456Z,82.64
2018-04-10T08:01:56.426Z,82.26
2018-04-10T08:02:58.291Z,83.12
2018-04-10T08:03:59.319Z,82.45
2018-04-10T08:04:56.358Z,82.93
2018-04-10T08:05:56.322Z,83.51
2018-04-10T08:06:56.298Z,83.60
2018-04-10T08:07:56.274Z,83.98
2018-04-10T08:08:56.260Z,83.60
2018-04-10T08:09:56.405Z,83.70
2018-04-10T08:10:56.256Z,84.08
2018-04-10T08:11:56.175Z,82.16
2018-04-10T08:12:56.154Z,85.04
2018-04-10T08:13:56.128Z,84.66
2018-04-10T08:14:56.098Z,84.85
2018-04-10T08:15:56.080Z,84.56
2018-04-10T08:16:56.061Z,85.14
2018-04-10T08:17:56.031Z,83.98
2018-04-10T08:18:56.007Z,85.04
2018-04-10T08:19:55.979Z,83.98
2018-04-10T08:20:56.069Z,84.95
2018-04-10T08:21:55.933Z,84.99
2018-04-10T08:22:56.077Z,84.12
2018-04-10T08:23:56.004Z,84.70
2018-04-10T08:24:55.941Z,84.89
2018-04-10T08:25:55.950Z,84.99
2018-04-10T08:26:55.884Z,85.18
2018-04-10T08:27:55.912Z,84.94
2018-04-10T08:28:55.861Z,84.94
2018-04-10T08:29:55.911Z,85.03
2018-04-10T08:30:55.985Z,84.74
2018-04-10T08:31:55.808Z,84.94
2018-04-10T08:32:55.790Z,84.51
2018-04-10T08:33:55.727Z,85.03
2018-04-10T08:34:58.426Z,84.94
2018-04-10T08:35:55.688Z,85.22
2018-04-10T08:36:55.681Z,85.32
2018-04-10T08:37:55.574Z,84.36
2018-04-10T08:38:55.536Z,84.74
2018-04-10T08:39:55.497Z,84.17
2018-04-10T08:40:55.463Z,84.36
2018-04-10T08:41:55.440Z,83.83
2018-04-10T08:42:55.419Z,83.30
2018-04-10T08:43:55.393Z,83.44
2018-04-10T08:44:55.388Z,82.76
2018-04-10T08:45:55.341Z,81.86
2018-04-10T08:46:55.324Z,82.53
2018-04-10T08:47:55.304Z,83.30
2018-04-10T08:48:55.275Z,83.69
2018-04-10T08:49:55.253Z,83.15
2018-04-10T08:50:55.232Z,82.76
2018-04-10T08:51:55.236Z,81.61
2018-04-10T08:52:55.183Z,80.27
2018-04-10T08:53:55.170Z,81.04
2018-04-10T08:54:55.161Z,81.28
2018-04-10T08:55:55.106Z,81.61
2018-04-10T08:56:55.083Z,82.38
2018-04-10T08:57:55.058Z,81.32
2018-04-10T08:58:55.043Z,80.65
2018-04-10T08:59:55.046Z,80.13
2018-04-10T09:00:54.991Z,80.90
2018-04-10T09:01:54.982Z,81.76
2018-04-10T09:02:54.962Z,81.19
2018-04-10T09:03:54.929Z,80.55
2018-04-10T09:04:56.783Z,80.46
2018-04-10T09:05:54.882Z,79.60
2018-04-10T09:06:54.879Z,78.28
2018-04-10T09:07:54.990Z,78.48
2018-04-10T09:08:54.831Z,77.33
2018-04-10T09:09:56.778Z,77.13
2018-04-10T09:10:54.770Z,76.31
2018-04-10T09:11:54.752Z,75.31
2018-04-10T09:12:54.715Z,74.25
2018-04-10T09:13:54.701Z,74.63
2018-04-10T09:14:54.678Z,75.02
2018-04-10T09:15:54.650Z,75.02
2018-04-10T09:16:54.630Z,75.21
2018-04-10T09:17:54.603Z,75.46
2018-04-10T09:18:54.588Z,74.73
2018-04-10T09:19:54.563Z,72.13
2018-04-10T09:20:54.530Z,72.90
2018-04-10T09:21:54.518Z,69.82
2018-04-10T09:22:54.483Z,67.71
2018-04-10T09:23:54.464Z,67.42
2018-04-10T09:24:54.439Z,66.88
2018-04-10T09:25:54.490Z,67.26
2018-04-10T09:26:54.402Z,67.03
2018-04-10T09:27:54.442Z,66.74
2018-04-10T09:28:54.380Z,67.03
2018-04-10T09:29:54.329Z,68.09
2018-04-10T09:30:54.338Z,68.29
2018-04-10T09:31:54.299Z,68.57
2018-04-10T09:32:54.262Z,67.90
2018-04-10T09:33:54.249Z,68.09
2018-04-10T09:34:54.219Z,67.71
2018-04-10T09:35:54.213Z,67.99
2018-04-10T09:36:54.180Z,67.99
2018-04-10T09:37:54.143Z,68.03
2018-04-10T09:38:54.130Z,66.39
2018-04-10T09:39:54.102Z,66.42
2018-04-10T09:40:54.302Z,65.63
2018-04-10T09:41:54.064Z,66.04
2018-04-10T09:42:54.044Z,64.95
2018-04-10T09:43:54.025Z,66.01
2018-04-10T09:44:54.007Z,64.98
2018-04-10T09:45:53.982Z,63.82
2018-04-10T09:46:53.958Z,64.37
2018-04-10T09:47:53.935Z,65.14
2018-04-10T09:48:53.915Z,64.66
2018-04-10T09:49:55.785Z,63.89
2018-04-10T09:50:53.865Z,64.12
2018-04-10T09:51:54.091Z,63.12
2018-04-10T09:52:53.816Z,62.26
2018-04-10T09:53:53.813Z,62.74
2018-04-10T09:54:53.773Z,62.48
2018-04-10T09:55:53.790Z,63.06
2018-04-10T09:56:53.767Z,61.90
2018-04-10T09:57:53.711Z,62.57
2018-04-10T09:58:53.700Z,62.48
2018-04-10T09:59:53.670Z,62.29
2018-04-10T10:00:53.650Z,61.45
2018-04-10T10:01:56.337Z,59.30
2018-04-10T10:02:53.602Z,59.97
2018-04-10T10:03:53.764Z,60.91
2018-04-10T10:04:53.561Z,61.32
2018-04-10T10:05:53.539Z,61.61
2018-04-10T10:06:53.512Z,61.04
2018-04-10T10:07:53.487Z,60.27
2018-04-10T10:08:53.472Z,60.72
2018-04-10T10:09:53.663Z,59.88
2018-04-10T10:10:53.426Z,58.63
2018-04-10T10:11:53.410Z,59.30
2018-04-10T10:12:53.417Z,60.17
2018-04-10T10:13:53.450Z,59.62
2018-04-10T10:14:53.346Z,59.04
2018-04-10T10:15:53.321Z,58.85
2018-04-10T10:16:53.298Z,59.11
2018-04-10T10:17:53.283Z,59.01
2018-04-10T10:18:53.261Z,59.20
2018-04-10T10:19:53.269Z,58.05
2018-04-10T10:20:53.220Z,58.15
2018-04-10T10:21:53.230Z,57.86
2018-04-10T10:22:53.173Z,57.18
2018-04-10T10:23:53.162Z,57.57
2018-04-10T10:24:53.124Z,57.89
2018-04-10T10:25:53.113Z,57.12
2018-04-10T10:26:53.085Z,57.12
2018-04-10T10:27:53.084Z,57.02
2018-04-10T10:28:53.039Z,56.66
2018-04-10T10:29:53.026Z,56.85
2018-04-10T10:30:52.993Z,55.99
2018-04-10T10:31:52.968Z,55.70
2018-04-10T10:32:52.962Z,55.12
2018-04-10T10:33:52.929Z,55.12
2018-04-10T10:34:53.138Z,55.19
2018-04-10T10:35:52.891Z,55.57
2018-04-10T10:36:52.863Z,54.93
2018-04-10T10:37:52.861Z,55.31
2018-04-10T10:38:52.824Z,54.93
2018-04-10T10:39:52.807Z,54.06
2018-04-10T10:40:52.783Z,53.48
2018-04-10T10:41:52.761Z,53.39
2018-04-10T10:42:52.767Z,53.41
2018-04-10T10:43:53.251Z,53.48
2018-04-10T10:44:52.712Z,54.25
2018-04-10T10:45:52.706Z,54.25
2018-04-10T10:46:54.316Z,55.41
2018-04-10T10:47:52.636Z,55.31
2018-04-10T10:48:52.609Z,55.05
2018-04-10T10:49:52.604Z,54.38
2018-04-10T10:50:52.578Z,54.09
2018-04-10T10:51:55.343Z,53.89
2018-04-10T10:52:52.533Z,53.73
2018-04-10T10:53:52.561Z,52.47
2018-04-10T10:54:52.496Z,52.55
2018-04-10T10:55:52.472Z,53.39
2018-04-10T10:56:52.458Z,53.22
2018-04-10T10:57:52.431Z,53.22
2018-04-10T10:58:52.407Z,53.00
2018-04-10T10:59:52.438Z,53.51
2018-04-10T11:00:52.369Z,53.31
2018-04-10T11:01:52.355Z,53.31
2018-04-10T11:02:52.333Z,52.35
2018-04-10T11:03:52.319Z,51.87
2018-04-10T11:04:52.281Z,52.45
2018-04-10T11:05:52.258Z,52.45
2018-04-10T11:06:52.264Z,52.64
2018-04-10T11:07:52.285Z,53.22
2018-04-10T11:08:52.200Z,53.09
2018-04-10T11:09:52.190Z,54.25
2018-04-10T11:10:52.160Z,54.28
2018-04-10T11:11:52.141Z,53.22
2018-04-10T11:12:52.122Z,52.45
2018-04-10T11:13:52.101Z,52.47
2018-04-10T11:14:52.091Z,52.37
2018-04-10T11:15:52.065Z,51.80
2018-04-10T11:16:52.046Z,51.39
2018-04-10T11:17:52.033Z,51.87
2018-04-10T11:18:52.033Z,51.99
2018-04-10T11:19:51.977Z,52.57
2018-04-10T11:20:51.954Z,52.37
2018-04-10T11:21:51.938Z,52.19
2018-04-10T11:22:51.916Z,52.95
2018-04-10T11:23:51.937Z,51.92
2018-04-10T11:24:51.880Z,50.96
2018-04-10T11:25:51.862Z,50.11
2018-04-10T11:26:51.962Z,49.63
2018-04-10T11:27:51.822Z,49.87
2018-04-10T11:28:51.806Z,51.03
2018-04-10T11:29:51.793Z,50.38
2018-04-10T11:30:51.984Z,50.57
2018-04-10T11:31:51.886Z,50.67
2018-04-10T11:32:51.735Z,49.63
2018-04-10T11:33:51.694Z,48.21
2018-04-10T11:34:51.681Z,47.81
2018-04-10T11:35:51.667Z,48.01
2018-04-10T11:36:51.640Z,48.30
2018-04-10T11:37:51.631Z,48.79
2018-04-10T11:38:51.604Z,48.66
2018-04-10T11:39:51.623Z,48.57
2018-04-10T11:40:51.571Z,48.47
2018-04-10T11:41:51.542Z,49.32
2018-04-10T11:42:51.535Z,49.34
2018-04-10T11:43:51.501Z,48.86
2018-04-10T11:44:51.499Z,48.49
2018-04-10T11:45:51.463Z,48.30
2018-04-10T11:46:51.443Z,46.85
2018-04-10T11:47:51.458Z,47.33
2018-04-10T11:48:51.421Z,47.84
2018-04-10T11:49:51.382Z,47.05
2018-04-10T11:50:51.367Z,47.72
2018-04-10T11:51:51.361Z,48.11
2018-04-10T11:52:51.340Z,47.80
2018-04-10T11:53:51.311Z,48.74
2018-04-10T11:54:51.298Z,49.32
2018-04-10T11:55:51.272Z,48.54
2018-04-10T11:56:51.258Z,48.64
2018-04-10T11:57:51.252Z,49.24
2018-04-10T11:58:52.890Z,49.05
2018-04-10T11:59:51.188Z,48.18
2018-04-10T12:00:51.179Z,47.77
2018-04-10T12:01:51.151Z,48.44
2018-04-10T12:02:51.143Z,48.44
2018-04-10T12:03:51.110Z,48.47
2018-04-10T12:04:51.100Z,47.96
2018-04-10T12:05:51.072Z,47.89
2018-04-10T12:06:51.104Z,47.80
2018-04-10T12:07:51.056Z,48.52
2018-04-10T12:08:51.018Z,48.83
2018-04-10T12:09:51.002Z,49.22
2018-04-10T12:10:50.983Z,48.35
2018-04-10T12:11:51.004Z,47.99
2018-04-10T12:12:50.958Z,47.19
2018-04-10T12:13:50.927Z,47.31
2018-04-10T12:14:50.912Z,47.12
2018-04-10T12:15:50.880Z,46.92
2018-04-10T12:16:50.860Z,47.14
2018-04-10T12:17:50.846Z,46.66
2018-04-10T12:18:50.821Z,46.17
2018-04-10T12:19:50.808Z,46.49
2018-04-10T12:20:50.786Z,45.33
2018-04-10T12:21:50.790Z,45.23
2018-04-10T12:22:50.752Z,45.25
2018-04-10T12:23:50.758Z,44.57
2018-04-10T12:24:50.715Z,44.17
2018-04-10T12:25:50.698Z,44.65
2018-04-10T12:26:50.688Z,45.62
2018-04-10T12:27:50.655Z,45.14
2018-04-10T12:28:50.637Z,44.29
2018-04-10T12:29:50.624Z,43.80
2018-04-10T12:30:50.598Z,43.44
2018-04-10T12:31:50.585Z,43.32
2018-04-10T12:32:50.566Z,45.31
2018-04-10T12:33:50.548Z,46.27
2018-04-10T12:34:50.530Z,46.47
2018-04-10T12:35:50.513Z,46.85
2018-04-10T12:36:50.501Z,46.08
2018-04-10T12:37:50.473Z,46.75
2018-04-10T12:38:50.465Z,46.17
2018-04-10T12:39:50.443Z,47.63
2018-04-10T12:40:50.416Z,47.33
2018-04-10T12:41:50.399Z,46.17
2018-04-10T12:42:50.380Z,45.69
2018-04-10T12:43:50.372Z,45.81
2018-04-10T12:44:50.346Z,44.94
2018-04-10T12:45:50.351Z,44.38
2018-04-10T12:46:50.307Z,44.09
2018-04-10T12:47:50.294Z,43.99
2018-04-10T12:48:52.830Z,43.90
2018-04-10T12:49:50.256Z,44.48
2018-04-10T12:50:50.248Z,43.80
2018-04-10T12:51:50.223Z,44.02
2018-04-10T12:52:51.835Z,44.02
2018-04-10T12:53:50.185Z,43.92
2018-04-10T12:54:50.167Z,43.63
2018-04-10T12:55:50.145Z,43.07
2018-04-10T12:56:50.129Z,42.41
2018-04-10T12:57:50.108Z,40.99
2018-04-10T12:58:50.141Z,40.99
2018-04-10T12:59:50.081Z,40.91